sensor_id;sensor_type;location;lat;lon;timestamp;pressure;altitude;pressure_sealevel;temperature;humidity
77737;BME280;66903;59.926;30.404;2024-01-30T00:03:36;102282.09;;;24.79;26.71
77737;BME280;66903;59.926;30.404;2024-01-30T00:08:47;102284.13;;;24.78;26.68
77737;BME280;66903;59.926;30.404;2024-01-30T00:13:59;102278.41;;;24.78;27.03
77737;BME280;66903;59.926;30.404;2024-01-30T00:19:10;102286.09;;;24.78;26.90
77737;BME280;66903;59.926;30.404;2024-01-30T00:24:21;102282.38;;;24.77;26.61
77737;BME280;66903;59.926;30.404;2024-01-30T00:29:31;102277.53;;;24.78;26.95
77737;BME280;66903;59.926;30.404;2024-01-30T00:34:44;102304.72;;;24.80;27.08
77737;BME280;66903;59.926;30.404;2024-01-30T00:39:54;102300.13;;;24.79;26.79
77737;BME280;66903;59.926;30.404;2024-01-30T00:45:05;102309.84;;;24.78;26.83
77737;BME280;66903;59.926;30.404;2024-01-30T00:50:16;102315.28;;;24.80;26.62
77737;BME280;66903;59.926;30.404;2024-01-30T00:55:27;102316.16;;;24.80;26.90
77737;BME280;66903;59.926;30.404;2024-01-30T01:00:39;102320.72;;;24.81;26.59
77737;BME280;66903;59.926;30.404;2024-01-30T01:05:49;102319.84;;;24.81;26.97
77737;BME280;66903;59.926;30.404;2024-01-30T01:11:00;102321.59;;;24.82;26.70
77737;BME280;66903;59.926;30.404;2024-01-30T01:16:11;102332.16;;;24.81;26.81
77737;BME280;66903;59.926;30.404;2024-01-30T01:21:22;102337.00;;;24.81;26.96
77737;BME280;66903;59.926;30.404;2024-01-30T01:26:33;102358.16;;;24.80;26.83
77737;BME280;66903;59.926;30.404;2024-01-30T01:31:44;102364.75;;;24.80;26.82
77737;BME280;66903;59.926;30.404;2024-01-30T01:36:55;102358.16;;;24.80;26.71
77737;BME280;66903;59.926;30.404;2024-01-30T01:42:06;102361.28;;;24.78;26.79
77737;BME280;66903;59.926;30.404;2024-01-30T01:47:17;102372.72;;;24.78;26.53
77737;BME280;66903;59.926;30.404;2024-01-30T01:52:28;102369.00;;;24.78;26.61
77737;BME280;66903;59.926;30.404;2024-01-30T01:57:39;102388.13;;;24.77;26.52
77737;BME280;66903;59.926;30.404;2024-01-30T02:02:50;102391.88;;;24.78;26.56
77737;BME280;66903;59.926;30.404;2024-01-30T02:08:02;102389.56;;;24.75;26.54
77737;BME280;66903;59.926;30.404;2024-01-30T02:13:13;102395.28;;;24.75;26.63
77737;BME280;66903;59.926;30.404;2024-01-30T02:18:24;102408.69;;;24.74;26.64
77737;BME280;66903;59.926;30.404;2024-01-30T02:23:55;102409.84;;;24.73;26.67
77737;BME280;66903;59.926;30.404;2024-01-30T02:29:06;102411.53;;;24.74;26.71
77737;BME280;66903;59.926;30.404;2024-01-30T02:34:18;102417.25;;;24.74;26.74
77737;BME280;66903;59.926;30.404;2024-01-30T02:39:29;102424.13;;;24.73;26.83
77737;BME280;66903;59.926;30.404;2024-01-30T02:44:40;102426.97;;;24.73;26.91
77737;BME280;66903;59.926;30.404;2024-01-30T02:49:51;102420.13;;;24.74;26.51
77737;BME280;66903;59.926;30.404;2024-01-30T02:55:02;102432.16;;;24.76;26.63
77737;BME280;66903;59.926;30.404;2024-01-30T03:00:15;102433.25;;;24.75;26.55
77737;BME280;66903;59.926;30.404;2024-01-30T03:05:25;102430.69;;;24.74;26.80
77737;BME280;66903;59.926;30.404;2024-01-30T03:10:36;102423.84;;;24.75;26.63
77737;BME280;66903;59.926;30.404;2024-01-30T03:15:47;102453.88;;;24.77;26.54
77737;BME280;66903;59.926;30.404;2024-01-30T03:20:57;102446.44;;;24.76;26.72
77737;BME280;66903;59.926;30.404;2024-01-30T03:26:08;102446.38;;;24.71;26.69
77737;BME280;66903;59.926;30.404;2024-01-30T03:31:19;102456.59;;;24.67;26.46
77737;BME280;66903;59.926;30.404;2024-01-30T03:36:30;102476.88;;;24.66;26.60
77737;BME280;66903;59.926;30.404;2024-01-30T03:41:43;102480.84;;;24.65;26.54
77737;BME280;66903;59.926;30.404;2024-01-30T03:46:54;102469.63;;;24.58;26.97
77737;BME280;66903;59.926;30.404;2024-01-30T03:52:05;102466.72;;;24.53;26.62
77737;BME280;66903;59.926;30.404;2024-01-30T03:57:16;102461.81;;;24.49;26.52
77737;BME280;66903;59.926;30.404;2024-01-30T04:02:27;102479.47;;;24.46;26.70
77737;BME280;66903;59.926;30.404;2024-01-30T04:07:37;102475.66;;;24.40;26.77
77737;BME280;66903;59.926;30.404;2024-01-30T04:12:48;102472.25;;;24.38;26.76
77737;BME280;66903;59.926;30.404;2024-01-30T04:17:59;102461.66;;;24.39;28.16
77737;BME280;66903;59.926;30.404;2024-01-30T04:23:10;102463.00;;;24.31;28.93
77737;BME280;66903;59.926;30.404;2024-01-30T04:28:20;102457.69;;;24.40;29.11
77737;BME280;66903;59.926;30.404;2024-01-30T04:33:31;102461.00;;;24.53;29.26
77737;BME280;66903;59.926;30.404;2024-01-30T04:38:42;102451.50;;;24.69;29.50
77737;BME280;66903;59.926;30.404;2024-01-30T04:43:52;102457.06;;;24.81;29.55
77737;BME280;66903;59.926;30.404;2024-01-30T04:49:03;102464.00;;;24.90;29.56
77737;BME280;66903;59.926;30.404;2024-01-30T04:54:14;102462.09;;;24.95;29.71
77737;BME280;66903;59.926;30.404;2024-01-30T04:59:25;102462.72;;;25.02;29.86
77737;BME280;66903;59.926;30.404;2024-01-30T05:04:35;102466.78;;;25.06;30.04
77737;BME280;66903;59.926;30.404;2024-01-30T05:09:46;102481.13;;;25.11;30.02
77737;BME280;66903;59.926;30.404;2024-01-30T05:14:57;102474.44;;;25.59;30.00
77737;BME280;66903;59.926;30.404;2024-01-30T05:20:08;102483.41;;;26.66;29.27
77737;BME280;66903;59.926;30.404;2024-01-30T05:25:21;102490.34;;;26.18;29.36
77737;BME280;66903;59.926;30.404;2024-01-30T05:30:31;102494.91;;;25.78;29.67
77737;BME280;66903;59.926;30.404;2024-01-30T05:35:42;102508.44;;;25.51;30.00
77737;BME280;66903;59.926;30.404;2024-01-30T05:40:53;102535.41;;;25.33;29.76
77737;BME280;66903;59.926;30.404;2024-01-30T05:46:04;102528.41;;;25.19;29.92
77737;BME280;66903;59.926;30.404;2024-01-30T05:51:14;102532.00;;;25.09;30.01
77737;BME280;66903;59.926;30.404;2024-01-30T05:56:25;102529.38;;;25.03;29.82
77737;BME280;66903;59.926;30.404;2024-01-30T06:01:36;102538.22;;;25.01;30.03
77737;BME280;66903;59.926;30.404;2024-01-30T06:06:47;102522.81;;;25.07;30.09
77737;BME280;66903;59.926;30.404;2024-01-30T06:11:57;102534.31;;;25.12;29.98
77737;BME280;66903;59.926;30.404;2024-01-30T06:17:08;102520.06;;;25.17;30.10
77737;BME280;66903;59.926;30.404;2024-01-30T06:22:19;102514.94;;;25.19;30.17
77737;BME280;66903;59.926;30.404;2024-01-30T06:27:30;102522.72;;;25.24;29.84
77737;BME280;66903;59.926;30.404;2024-01-30T06:32:41;102523.88;;;25.28;29.94
77737;BME280;66903;59.926;30.404;2024-01-30T06:37:51;102522.22;;;25.32;29.99
77737;BME280;66903;59.926;30.404;2024-01-30T06:43:02;102538.00;;;25.35;29.77
77737;BME280;66903;59.926;30.404;2024-01-30T06:48:13;102556.94;;;25.41;29.66
77737;BME280;66903;59.926;30.404;2024-01-30T06:53:24;102541.25;;;25.43;29.62
77737;BME280;66903;59.926;30.404;2024-01-30T06:58:35;102545.03;;;25.49;29.58
77737;BME280;66903;59.926;30.404;2024-01-30T07:03:46;102552.50;;;25.55;29.64
77737;BME280;66903;59.926;30.404;2024-01-30T07:08:57;102555.16;;;25.61;29.49
77737;BME280;66903;59.926;30.404;2024-01-30T07:14:09;102562.94;;;25.66;29.70
77737;BME280;66903;59.926;30.404;2024-01-30T07:19:19;102566.69;;;25.71;29.78
77737;BME280;66903;59.926;30.404;2024-01-30T07:24:30;102571.31;;;25.77;29.89
77737;BME280;66903;59.926;30.404;2024-01-30T07:29:41;102568.78;;;25.81;30.36
77737;BME280;66903;59.926;30.404;2024-01-30T07:34:52;102575.34;;;25.76;30.41
77737;BME280;66903;59.926;30.404;2024-01-30T07:40:03;102581.38;;;25.80;30.40
77737;BME280;66903;59.926;30.404;2024-01-30T07:45:15;102575.28;;;25.71;30.52
77737;BME280;66903;59.926;30.404;2024-01-30T07:50:26;102573.75;;;25.59;30.66
77737;BME280;66903;59.926;30.404;2024-01-30T07:55:37;102577.63;;;25.48;30.81
77737;BME280;66903;59.926;30.404;2024-01-30T08:00:48;102579.00;;;25.40;30.82
77737;BME280;66903;59.926;30.404;2024-01-30T08:05:58;102573.72;;;25.32;31.03
77737;BME280;66903;59.926;30.404;2024-01-30T08:11:09;102587.09;;;25.27;31.48
77737;BME280;66903;59.926;30.404;2024-01-30T08:16:20;102588.28;;;25.31;31.45
77737;BME280;66903;59.926;30.404;2024-01-30T08:21:30;102590.88;;;25.32;30.78
77737;BME280;66903;59.926;30.404;2024-01-30T08:26:46;102584.88;;;25.34;31.02
77737;BME280;66903;59.926;30.404;2024-01-30T08:31:57;102585.06;;;25.44;30.88
77737;BME280;66903;59.926;30.404;2024-01-30T08:37:09;102575.28;;;25.40;30.69
77737;BME280;66903;59.926;30.404;2024-01-30T08:42:20;102590.13;;;25.37;30.70
77737;BME280;66903;59.926;30.404;2024-01-30T08:47:32;102578.78;;;25.47;30.57
77737;BME280;66903;59.926;30.404;2024-01-30T08:52:43;102592.91;;;25.58;30.63
77737;BME280;66903;59.926;30.404;2024-01-30T08:57:54;102593.22;;;25.62;30.46
77737;BME280;66903;59.926;30.404;2024-01-30T09:03:05;102591.72;;;25.86;30.63
77737;BME280;66903;59.926;30.404;2024-01-30T09:08:15;102585.84;;;26.39;30.24
77737;BME280;66903;59.926;30.404;2024-01-30T09:13:26;102596.75;;;26.79;29.73
77737;BME280;66903;59.926;30.404;2024-01-30T09:18:37;102583.63;;;26.98;29.67
77737;BME280;66903;59.926;30.404;2024-01-30T09:23:47;102597.44;;;27.16;29.58
77737;BME280;66903;59.926;30.404;2024-01-30T09:28:58;102597.19;;;27.27;29.49
77737;BME280;66903;59.926;30.404;2024-01-30T09:34:09;102607.03;;;27.37;29.40
77737;BME280;66903;59.926;30.404;2024-01-30T09:39:19;102605.34;;;27.51;29.41
77737;BME280;66903;59.926;30.404;2024-01-30T09:44:30;102609.66;;;27.73;28.78
77737;BME280;66903;59.926;30.404;2024-01-30T09:49:43;102614.25;;;27.84;28.76
77737;BME280;66903;59.926;30.404;2024-01-30T09:54:54;102603.69;;;28.00;27.95
77737;BME280;66903;59.926;30.404;2024-01-30T10:00:06;102605.94;;;27.73;28.13
77737;BME280;66903;59.926;30.404;2024-01-30T10:05:19;102603.56;;;27.40;28.10
77737;BME280;66903;59.926;30.404;2024-01-30T10:10:30;102605.19;;;27.10;28.52
77737;BME280;66903;59.926;30.404;2024-01-30T10:15:42;102609.13;;;26.89;28.95
77737;BME280;66903;59.926;30.404;2024-01-30T10:20:52;102612.06;;;27.14;28.46
77737;BME280;66903;59.926;30.404;2024-01-30T10:26:07;102612.56;;;27.93;28.16
77737;BME280;66903;59.926;30.404;2024-01-30T10:31:18;102610.19;;;28.71;27.45
77737;BME280;66903;59.926;30.404;2024-01-30T10:36:29;102618.59;;;29.31;27.07
77737;BME280;66903;59.926;30.404;2024-01-30T10:41:43;102625.75;;;29.87;26.46
77737;BME280;66903;59.926;30.404;2024-01-30T10:47:00;102621.53;;;29.75;26.86
77737;BME280;66903;59.926;30.404;2024-01-30T10:52:14;102606.59;;;29.63;26.61
77737;BME280;66903;59.926;30.404;2024-01-30T10:57:27;102613.81;;;29.60;26.67
77737;BME280;66903;59.926;30.404;2024-01-30T11:02:40;102617.38;;;29.91;26.36
77737;BME280;66903;59.926;30.404;2024-01-30T11:07:51;102622.00;;;30.54;26.12
77737;BME280;66903;59.926;30.404;2024-01-30T11:13:10;102632.41;;;31.26;25.53
77737;BME280;66903;59.926;30.404;2024-01-30T11:18:29;102622.47;;;31.56;25.29
77737;BME280;66903;59.926;30.404;2024-01-30T11:23:40;102620.06;;;31.63;24.95
77737;BME280;66903;59.926;30.404;2024-01-30T11:28:52;102618.66;;;31.41;25.21
77737;BME280;66903;59.926;30.404;2024-01-30T11:34:04;102630.66;;;31.25;25.32
77737;BME280;66903;59.926;30.404;2024-01-30T11:39:16;102616.78;;;31.51;25.90
77737;BME280;66903;59.926;30.404;2024-01-30T11:44:27;102628.09;;;31.23;25.21
77737;BME280;66903;59.926;30.404;2024-01-30T11:49:38;102618.78;;;31.08;25.12
77737;BME280;66903;59.926;30.404;2024-01-30T11:54:49;102624.88;;;31.06;25.12
77737;BME280;66903;59.926;30.404;2024-01-30T12:00:01;102616.56;;;30.19;25.20
77737;BME280;66903;59.926;30.404;2024-01-30T12:05:15;102622.59;;;28.66;26.16
77737;BME280;66903;59.926;30.404;2024-01-30T12:10:25;102616.53;;;27.72;26.88
77737;BME280;66903;59.926;30.404;2024-01-30T12:15:37;102621.25;;;27.11;27.13
77737;BME280;66903;59.926;30.404;2024-01-30T12:21:01;102621.06;;;26.71;27.54
77737;BME280;66903;59.926;30.404;2024-01-30T12:26:12;102613.13;;;26.42;27.63
77737;BME280;66903;59.926;30.404;2024-01-30T12:31:27;102608.97;;;26.23;28.05
77737;BME280;66903;59.926;30.404;2024-01-30T12:36:38;102608.03;;;26.12;27.85
77737;BME280;66903;59.926;30.404;2024-01-30T12:41:49;102611.78;;;26.17;27.86
77737;BME280;66903;59.926;30.404;2024-01-30T12:47:03;102606.50;;;26.41;27.90
77737;BME280;66903;59.926;30.404;2024-01-30T12:52:16;102613.81;;;26.64;27.56
77737;BME280;66903;59.926;30.404;2024-01-30T12:57:26;102609.63;;;26.76;27.17
77737;BME280;66903;59.926;30.404;2024-01-30T13:02:37;102606.09;;;26.64;27.41
77737;BME280;66903;59.926;30.404;2024-01-30T13:07:48;102607.03;;;26.33;27.69
77737;BME280;66903;59.926;30.404;2024-01-30T13:12:59;102603.78;;;26.19;28.20
77737;BME280;66903;59.926;30.404;2024-01-30T13:18:10;102598.59;;;26.16;27.86
77737;BME280;66903;59.926;30.404;2024-01-30T13:23:20;102598.88;;;26.15;28.03
77737;BME280;66903;59.926;30.404;2024-01-30T13:28:31;102587.06;;;26.06;27.73
77737;BME280;66903;59.926;30.404;2024-01-30T13:33:42;102599.84;;;25.99;28.18
77737;BME280;66903;59.926;30.404;2024-01-30T13:38:52;102599.81;;;25.94;28.32
77737;BME280;66903;59.926;30.404;2024-01-30T13:44:03;102594.66;;;25.91;28.22
77737;BME280;66903;59.926;30.404;2024-01-30T13:49:14;102588.59;;;25.87;28.68
77737;BME280;66903;59.926;30.404;2024-01-30T13:54:25;102596.03;;;25.88;28.63
77737;BME280;66903;59.926;30.404;2024-01-30T13:59:37;102593.75;;;25.85;28.53
77737;BME280;66903;59.926;30.404;2024-01-30T14:04:48;102592.16;;;25.68;28.69
77737;BME280;66903;59.926;30.404;2024-01-30T14:09:59;102594.38;;;25.61;28.96
77737;BME280;66903;59.926;30.404;2024-01-30T14:15:10;102598.78;;;25.73;28.76
77737;BME280;66903;59.926;30.404;2024-01-30T14:20:21;102596.63;;;25.59;28.71
77737;BME280;66903;59.926;30.404;2024-01-30T14:25:32;102602.72;;;25.41;29.15
77737;BME280;66903;59.926;30.404;2024-01-30T14:30:43;102595.66;;;25.48;29.19
77737;BME280;66903;59.926;30.404;2024-01-30T14:35:53;102601.97;;;25.77;28.68
77737;BME280;66903;59.926;30.404;2024-01-30T14:41:04;102601.34;;;25.70;28.58
77737;BME280;66903;59.926;30.404;2024-01-30T14:46:16;102611.16;;;25.52;28.64
77737;BME280;66903;59.926;30.404;2024-01-30T14:51:27;102610.16;;;25.37;28.66
77737;BME280;66903;59.926;30.404;2024-01-30T14:56:40;102605.41;;;25.26;28.82
77737;BME280;66903;59.926;30.404;2024-01-30T15:01:51;102612.47;;;25.18;28.77
77737;BME280;66903;59.926;30.404;2024-01-30T15:07:01;102617.84;;;25.14;28.44
77737;BME280;66903;59.926;30.404;2024-01-30T15:12:12;102620.16;;;25.17;28.85
77737;BME280;66903;59.926;30.404;2024-01-30T15:17:23;102613.44;;;25.29;28.35
77737;BME280;66903;59.926;30.404;2024-01-30T15:22:34;102615.66;;;25.22;28.87
77737;BME280;66903;59.926;30.404;2024-01-30T15:27:45;102607.84;;;25.12;29.39
77737;BME280;66903;59.926;30.404;2024-01-30T15:32:55;102597.44;;;25.06;29.75
77737;BME280;66903;59.926;30.404;2024-01-30T15:38:07;102605.09;;;25.00;29.65
77737;BME280;66903;59.926;30.404;2024-01-30T15:43:19;102610.75;;;24.95;29.60
77737;BME280;66903;59.926;30.404;2024-01-30T15:48:30;102605.56;;;24.92;29.98
77737;BME280;66903;59.926;30.404;2024-01-30T15:53:40;102604.09;;;24.90;29.99
77737;BME280;66903;59.926;30.404;2024-01-30T15:58:51;102607.50;;;24.87;29.97
77737;BME280;66903;59.926;30.404;2024-01-30T16:04:02;102596.28;;;24.80;29.76
77737;BME280;66903;59.926;30.404;2024-01-30T16:09:13;102597.66;;;24.78;29.90
77737;BME280;66903;59.926;30.404;2024-01-30T16:14:25;102601.06;;;24.75;30.23
77737;BME280;66903;59.926;30.404;2024-01-30T16:19:35;102607.88;;;24.74;29.91
77737;BME280;66903;59.926;30.404;2024-01-30T16:24:46;102603.91;;;24.75;30.11
77737;BME280;66903;59.926;30.404;2024-01-30T16:29:57;102610.75;;;24.74;30.21
77737;BME280;66903;59.926;30.404;2024-01-30T16:35:08;102600.19;;;24.74;30.39
77737;BME280;66903;59.926;30.404;2024-01-30T16:40:19;102596.78;;;24.77;30.54
77737;BME280;66903;59.926;30.404;2024-01-30T16:45:29;102599.38;;;24.79;30.73
77737;BME280;66903;59.926;30.404;2024-01-30T16:50:40;102592.81;;;24.78;30.79
77737;BME280;66903;59.926;30.404;2024-01-30T16:55:51;102590.13;;;24.72;30.50
77737;BME280;66903;59.926;30.404;2024-01-30T17:01:02;102584.84;;;24.64;30.23
77737;BME280;66903;59.926;30.404;2024-01-30T17:06:13;102588.00;;;24.62;30.12
77737;BME280;66903;59.926;30.404;2024-01-30T17:11:23;102582.81;;;24.59;30.35
77737;BME280;66903;59.926;30.404;2024-01-30T17:16:35;102578.41;;;24.52;29.79
77737;BME280;66903;59.926;30.404;2024-01-30T17:21:46;102563.19;;;24.46;30.07
77737;BME280;66903;59.926;30.404;2024-01-30T17:26:57;102560.00;;;24.43;30.15
77737;BME280;66903;59.926;30.404;2024-01-30T17:32:08;102556.78;;;24.39;29.90
77737;BME280;66903;59.926;30.404;2024-01-30T17:37:19;102551.34;;;24.38;30.20
77737;BME280;66903;59.926;30.404;2024-01-30T17:42:29;102549.03;;;24.35;29.92
77737;BME280;66903;59.926;30.404;2024-01-30T17:47:40;102560.63;;;24.28;30.04
77737;BME280;66903;59.926;30.404;2024-01-30T17:52:51;102546.28;;;24.23;30.31
77737;BME280;66903;59.926;30.404;2024-01-30T17:58:04;102550.06;;;24.29;30.05
77737;BME280;66903;59.926;30.404;2024-01-30T18:03:16;102552.06;;;24.28;30.45
77737;BME280;66903;59.926;30.404;2024-01-30T18:08:26;102530.09;;;24.29;30.66
77737;BME280;66903;59.926;30.404;2024-01-30T18:13:37;102534.66;;;24.30;30.59
77737;BME280;66903;59.926;30.404;2024-01-30T18:18:48;102538.28;;;24.42;30.84
77737;BME280;66903;59.926;30.404;2024-01-30T18:23:59;102539.84;;;24.54;30.60
77737;BME280;66903;59.926;30.404;2024-01-30T18:29:10;102527.97;;;24.62;30.84
77737;BME280;66903;59.926;30.404;2024-01-30T18:34:20;102531.53;;;24.69;30.92
77737;BME280;66903;59.926;30.404;2024-01-30T18:39:31;102525.31;;;24.77;31.26
77737;BME280;66903;59.926;30.404;2024-01-30T18:44:42;102523.63;;;25.93;30.55
77737;BME280;66903;59.926;30.404;2024-01-30T18:49:53;102505.91;;;27.09;29.83
77737;BME280;66903;59.926;30.404;2024-01-30T18:55:05;102501.09;;;27.90;29.17
77737;BME280;66903;59.926;30.404;2024-01-30T19:00:16;102500.44;;;28.44;29.08
77737;BME280;66903;59.926;30.404;2024-01-30T19:05:27;102507.25;;;28.68;27.67
77737;BME280;66903;59.926;30.404;2024-01-30T19:10:38;102499.69;;;27.73;27.52
77737;BME280;66903;59.926;30.404;2024-01-30T19:15:49;102486.19;;;27.43;26.80
77737;BME280;66903;59.926;30.404;2024-01-30T19:21:00;102485.84;;;27.19;26.72
77737;BME280;66903;59.926;30.404;2024-01-30T19:26:12;102480.81;;;24.38;27.15
77737;BME280;66903;59.926;30.404;2024-01-30T19:31:23;102479.13;;;20.86;29.53
77737;BME280;66903;59.926;30.404;2024-01-30T19:36:34;102469.47;;;18.69;32.23
77737;BME280;66903;59.926;30.404;2024-01-30T19:41:46;102464.59;;;18.83;33.11
77737;BME280;66903;59.926;30.404;2024-01-30T19:46:57;102460.16;;;19.67;32.45
77737;BME280;66903;59.926;30.404;2024-01-30T19:52:13;102442.41;;;20.44;31.81
77737;BME280;66903;59.926;30.404;2024-01-30T19:57:25;102444.84;;;21.00;31.49
77737;BME280;66903;59.926;30.404;2024-01-30T20:02:35;102440.22;;;21.40;31.23
77737;BME280;66903;59.926;30.404;2024-01-30T20:07:46;102430.69;;;21.69;31.39
77737;BME280;66903;59.926;30.404;2024-01-30T20:12:57;102431.66;;;21.98;31.42
77737;BME280;66903;59.926;30.404;2024-01-30T20:18:08;102424.00;;;22.26;31.39
77737;BME280;66903;59.926;30.404;2024-01-30T20:23:19;102409.94;;;22.48;31.25
77737;BME280;66903;59.926;30.404;2024-01-30T20:28:30;102413.97;;;22.63;31.64
77737;BME280;66903;59.926;30.404;2024-01-30T20:33:42;102425.06;;;22.76;31.21
77737;BME280;66903;59.926;30.404;2024-01-30T20:38:53;102425.34;;;22.91;31.44
77737;BME280;66903;59.926;30.404;2024-01-30T20:44:03;102424.41;;;23.02;31.60
77737;BME280;66903;59.926;30.404;2024-01-30T20:49:14;102418.34;;;23.16;31.50
77737;BME280;66903;59.926;30.404;2024-01-30T20:54:25;102408.25;;;23.25;31.38
77737;BME280;66903;59.926;30.404;2024-01-30T20:59:36;102389.53;;;23.29;31.07
77737;BME280;66903;59.926;30.404;2024-01-30T21:04:46;102382.81;;;23.35;31.64
77737;BME280;66903;59.926;30.404;2024-01-30T21:09:57;102377.78;;;23.42;31.76
77737;BME280;66903;59.926;30.404;2024-01-30T21:15:09;102377.25;;;23.45;31.49
77737;BME280;66903;59.926;30.404;2024-01-30T21:20:20;102387.25;;;23.47;31.75
77737;BME280;66903;59.926;30.404;2024-01-30T21:25:31;102376.72;;;23.48;31.13
77737;BME280;66903;59.926;30.404;2024-01-30T21:30:41;102369.03;;;23.48;31.29
77737;BME280;66903;59.926;30.404;2024-01-30T21:35:53;102357.63;;;23.48;31.42
77737;BME280;66903;59.926;30.404;2024-01-30T21:41:04;102347.31;;;23.47;31.10
77737;BME280;66903;59.926;30.404;2024-01-30T21:46:26;102339.91;;;23.46;31.28
77737;BME280;66903;59.926;30.404;2024-01-30T21:51:37;102327.38;;;23.47;31.00
77737;BME280;66903;59.926;30.404;2024-01-30T21:56:48;102319.41;;;23.49;31.14
77737;BME280;66903;59.926;30.404;2024-01-30T22:01:59;102308.00;;;23.49;31.06
77737;BME280;66903;59.926;30.404;2024-01-30T22:07:09;102294.59;;;23.50;31.33
77737;BME280;66903;59.926;30.404;2024-01-30T22:12:22;102289.78;;;23.50;31.42
77737;BME280;66903;59.926;30.404;2024-01-30T22:17:33;102274.38;;;23.51;31.40
77737;BME280;66903;59.926;30.404;2024-01-30T22:22:44;102270.41;;;23.52;31.46
77737;BME280;66903;59.926;30.404;2024-01-30T22:27:54;102264.94;;;23.51;31.22
77737;BME280;66903;59.926;30.404;2024-01-30T22:33:05;102252.44;;;23.52;31.47
77737;BME280;66903;59.926;30.404;2024-01-30T22:38:17;102252.69;;;23.50;31.14
77737;BME280;66903;59.926;30.404;2024-01-30T22:43:28;102247.84;;;23.51;31.06
77737;BME280;66903;59.926;30.404;2024-01-30T22:48:43;102257.25;;;23.51;31.05
77737;BME280;66903;59.926;30.404;2024-01-30T22:53:55;102252.97;;;23.49;31.10
77737;BME280;66903;59.926;30.404;2024-01-30T22:59:06;102251.22;;;23.48;31.48
77737;BME280;66903;59.926;30.404;2024-01-30T23:04:17;102251.22;;;23.48;31.58
77737;BME280;66903;59.926;30.404;2024-01-30T23:09:27;102243.81;;;23.47;31.31
77737;BME280;66903;59.926;30.404;2024-01-30T23:14:38;102230.66;;;23.46;31.32
77737;BME280;66903;59.926;30.404;2024-01-30T23:19:50;102220.38;;;23.45;31.28
77737;BME280;66903;59.926;30.404;2024-01-30T23:25:01;102218.41;;;23.45;31.18
77737;BME280;66903;59.926;30.404;2024-01-30T23:30:12;102221.25;;;23.45;31.47
77737;BME280;66903;59.926;30.404;2024-01-30T23:35:23;102195.00;;;23.43;31.51
77737;BME280;66903;59.926;30.404;2024-01-30T23:40:34;102202.69;;;23.43;31.09
77737;BME280;66903;59.926;30.404;2024-01-30T23:45:45;102195.25;;;23.42;31.26
77737;BME280;66903;59.926;30.404;2024-01-30T23:50:55;102196.09;;;23.42;31.51
77737;BME280;66903;59.926;30.404;2024-01-30T23:56:06;102181.00;;;23.42;31.25
